Time,TemperatureF,DewpointF,PressureIn,WindDirection,WindDirectionDegrees,WindSpeedMPH,WindSpeedGustMPH,Humidity,HourlyPrecipIn,Conditions,Clouds,dailyrainin,SoftwareType,DateUTC
2013-02-13 00:02:00,26.0,-99.9,-100.00,WNW,290,0.0,0.0,-999,0.00,,,0.00,,2013-02-13 06:02:00,
2013-02-13 00:12:00,26.0,-99.9,-100.00,WNW,290,0.0,0.0,-999,0.00,,,0.00,,2013-02-13 06:12:00,
2013-02-13 00:22:00,26.0,-99.9,-100.00,WNW,290,0.0,0.0,-999,0.00,,,0.00,,2013-02-13 06:22:00,
2013-02-13 00:32:00,26.0,-99.9,-100.00,SSE,155,2.0,3.0,-999,0.00,,,0.00,,2013-02-13 06:32:00,
2013-02-13 00:42:00,26.0,-99.9,-100.00,SSE,155,2.0,3.0,-999,0.00,,,0.00,,2013-02-13 06:42:00,
2013-02-13 00:52:00,26.0,-99.9,-100.00,SSE,155,2.0,3.0,-999,0.00,,,0.00,,2013-02-13 06:52:00,
2013-02-13 01:02:00,27.0,-99.9,-100.00,SSE,159,2.0,2.0,-999,0.00,,,0.00,,2013-02-13 07:02:00,
2013-02-13 01:11:00,27.0,-99.9,-100.00,SSE,159,2.0,2.0,-999,0.00,,,0.00,,2013-02-13 07:11:00,
2013-02-13 01:22:00,27.0,-99.9,-100.00,SSE,159,2.0,2.0,-999,0.00,,,0.00,,2013-02-13 07:22:00,
2013-02-13 01:32:00,28.0,-99.9,-100.00,SSE,163,2.0,3.0,-999,0.00,,,0.00,,2013-02-13 07:32:00,
2013-02-13 01:42:00,28.0,-99.9,-100.00,SSE,163,2.0,3.0,-999,0.00,,,0.00,,2013-02-13 07:42:00,
2013-02-13 01:52:00,28.0,-99.9,-100.00,SSE,163,2.0,3.0,-999,0.00,,,0.00,,2013-02-13 07:52:00,
2013-02-13 02:01:00,27.0,-99.9,-100.00,SSE,162,2.0,3.0,-999,0.00,,,-99.99,,2013-02-13 08:01:00,
2013-02-13 02:12:00,27.0,-99.9,-100.00,SSE,162,2.0,3.0,-999,0.00,,,-99.99,,2013-02-13 08:12:00,
2013-02-13 02:22:00,27.0,-99.9,-100.00,SSE,162,2.0,3.0,-999,0.00,,,-99.99,,2013-02-13 08:22:00,
2013-02-13 02:32:00,25.0,-99.9,-100.00,SSW,192,1.0,2.0,-999,0.00,,,0.00,,2013-02-13 08:32:00,
2013-02-13 02:43:00,25.0,-99.9,-100.00,SSW,192,1.0,2.0,-999,0.00,,,0.00,,2013-02-13 08:43:00,
2013-02-13 02:52:00,25.0,-99.9,-100.00,SSW,192,1.0,2.0,-999,0.00,,,0.00,,2013-02-13 08:52:00,
2013-02-13 03:02:00,25.0,-99.9,-100.00,South,186,1.0,2.0,-999,0.00,,,0.00,,2013-02-13 09:02:00,
2013-02-13 03:11:00,25.0,-99.9,-100.00,South,186,1.0,2.0,-999,0.00,,,0.00,,2013-02-13 09:11:00,
2013-02-13 03:22:00,25.0,-99.9,-100.00,South,186,1.0,2.0,-999,0.00,,,0.00,,2013-02-13 09:22:00,
2013-02-13 03:32:00,25.0,-99.9,-100.00,SW,216,0.0,1.0,-999,0.00,,,0.00,,2013-02-13 09:32:00,
2013-02-13 03:42:00,25.0,-99.9,-100.00,SW,216,0.0,1.0,-999,0.00,,,0.00,,2013-02-13 09:42:00,
2013-02-13 03:52:00,25.0,-99.9,-100.00,SW,216,0.0,1.0,-999,0.00,,,0.00,,2013-02-13 09:52:00,
2013-02-13 04:01:00,24.0,-99.9,-100.00,SW,223,2.0,3.0,-999,0.00,,,0.00,,2013-02-13 10:01:00,
2013-02-13 04:11:00,24.0,-99.9,-100.00,SW,223,2.0,3.0,-999,0.00,,,0.00,,2013-02-13 10:11:00,
2013-02-13 04:22:00,24.0,-99.9,-100.00,SW,223,2.0,3.0,-999,0.00,,,0.00,,2013-02-13 10:22:00,
2013-02-13 04:32:00,24.0,-99.9,-100.00,SW,235,3.0,4.0,-999,0.00,,,0.00,,2013-02-13 10:32:00,
2013-02-13 04:42:00,24.0,-99.9,-100.00,SW,235,3.0,4.0,-999,0.00,,,0.00,,2013-02-13 10:42:00,
2013-02-13 04:52:00,24.0,-99.9,-100.00,SW,235,3.0,4.0,-999,0.00,,,0.00,,2013-02-13 10:52:00,
2013-02-13 05:01:00,23.0,-99.9,-100.00,SW,226,4.0,5.0,-999,0.00,,,0.00,,2013-02-13 11:01:00,
2013-02-13 05:11:00,23.0,-99.9,-100.00,SW,226,4.0,5.0,-999,0.00,,,0.00,,2013-02-13 11:11:00,
2013-02-13 05:22:00,23.0,-99.9,-100.00,SW,226,4.0,5.0,-999,0.00,,,0.00,,2013-02-13 11:22:00,
2013-02-13 05:32:00,23.0,-99.9,-100.00,SW,224,1.0,2.0,-999,0.00,,,0.00,,2013-02-13 11:32:00,
2013-02-13 05:42:00,23.0,-99.9,-100.00,SW,224,1.0,2.0,-999,0.00,,,0.00,,2013-02-13 11:42:00,
2013-02-13 05:52:00,23.0,-99.9,-100.00,SW,224,1.0,2.0,-999,0.00,,,0.00,,2013-02-13 11:52:00,
2013-02-13 06:02:00,22.0,-99.9,-100.00,WSW,237,2.0,4.0,-999,0.00,,,0.00,,2013-02-13 12:02:00,
2013-02-13 06:11:00,22.0,-99.9,-100.00,WSW,237,2.0,4.0,-999,0.00,,,0.00,,2013-02-13 12:11:00,
2013-02-13 06:22:00,22.0,-99.9,-100.00,WSW,237,2.0,4.0,-999,0.00,,,0.00,,2013-02-13 12:22:00,
2013-02-13 06:30:00,22.0,-99.9,-100.00,SSW,209,2.0,3.0,-999,0.00,,,0.00,,2013-02-13 12:30:00,
2013-02-13 06:32:00,22.0,-99.9,-100.00,SW,234,2.0,4.0,-999,0.00,,,0.00,,2013-02-13 12:32:00,
2013-02-13 06:42:00,22.0,-99.9,-100.00,SW,234,2.0,4.0,-999,0.00,,,0.00,,2013-02-13 12:42:00,
2013-02-13 06:52:00,22.0,-99.9,-100.00,SW,234,2.0,4.0,-999,0.00,,,0.00,,2013-02-13 12:52:00,
2013-02-13 07:02:00,22.0,-99.9,-100.00,SSW,209,2.0,3.0,-999,0.00,,,0.00,,2013-02-13 13:02:00,
2013-02-13 07:12:00,22.0,-99.9,-100.00,SSW,209,2.0,3.0,-999,0.00,,,0.00,,2013-02-13 13:12:00,
2013-02-13 07:22:00,22.0,-99.9,-100.00,SSW,209,2.0,3.0,-999,0.00,,,0.00,,2013-02-13 13:22:00,
2013-02-13 08:01:00,22.0,-99.9,-100.00,SW,236,2.0,2.0,-999,0.00,,,0.00,,2013-02-13 14:01:00,
2013-02-13 08:11:00,22.0,-99.9,-100.00,SW,236,2.0,2.0,-999,0.00,,,0.00,,2013-02-13 14:11:00,
2013-02-13 08:22:00,22.0,-99.9,-100.00,SW,236,2.0,2.0,-999,0.00,,,0.00,,2013-02-13 14:22:00,
2013-02-13 08:32:00,25.0,-99.9,-100.00,South,187,1.0,2.0,-999,0.00,,,0.00,,2013-02-13 14:32:00,
2013-02-13 08:42:00,25.0,-99.9,-100.00,South,187,1.0,2.0,-999,0.00,,,0.00,,2013-02-13 14:42:00,
2013-02-13 08:52:00,25.0,-99.9,-100.00,South,187,1.0,2.0,-999,0.00,,,0.00,,2013-02-13 14:52:00,
2013-02-13 09:02:00,30.0,-99.9,-100.00,SE,145,1.0,3.0,-999,0.00,,,0.00,,2013-02-13 15:02:00,
2013-02-13 09:11:00,30.0,-99.9,-100.00,SE,145,1.0,3.0,-999,0.00,,,0.00,,2013-02-13 15:11:00,
2013-02-13 09:22:00,30.0,-99.9,-100.00,SE,145,1.0,3.0,-999,0.00,,,0.00,,2013-02-13 15:22:00,
2013-02-13 09:32:00,29.0,-99.9,-100.00,SSE,153,4.0,5.0,-999,0.00,,,0.00,,2013-02-13 15:32:00,
2013-02-13 09:42:00,29.0,-99.9,-100.00,SSE,153,4.0,5.0,-999,0.00,,,0.00,,2013-02-13 15:42:00,
2013-02-13 09:52:00,29.0,-99.9,-100.00,SSE,153,4.0,5.0,-999,0.00,,,0.00,,2013-02-13 15:52:00,
2013-02-13 10:02:00,34.0,-99.9,-100.00,SE,132,2.0,4.0,-999,0.00,,,0.00,,2013-02-13 16:02:00,
2013-02-13 10:12:00,34.0,-99.9,-100.00,SE,132,2.0,4.0,-999,0.00,,,0.00,,2013-02-13 16:12:00,
2013-02-13 10:22:00,34.0,-99.9,-100.00,SE,132,2.0,4.0,-999,0.00,,,0.00,,2013-02-13 16:22:00,
2013-02-13 10:32:00,32.0,-99.9,-100.00,North,356,3.0,3.0,-999,0.00,,,0.00,,2013-02-13 16:32:00,
2013-02-13 10:42:00,32.0,-99.9,-100.00,North,356,3.0,3.0,-999,0.00,,,0.00,,2013-02-13 16:42:00,
2013-02-13 10:52:00,32.0,-99.9,-100.00,North,356,3.0,3.0,-999,0.00,,,0.00,,2013-02-13 16:52:00,
2013-02-13 11:02:00,32.0,-99.9,-100.00,NE,37,2.0,3.0,-999,0.00,,,0.00,,2013-02-13 17:02:00,
2013-02-13 11:11:00,32.0,-99.9,-100.00,NE,37,2.0,3.0,-999,0.00,,,0.00,,2013-02-13 17:11:00,
2013-02-13 11:22:00,32.0,-99.9,-100.00,NE,37,2.0,3.0,-999,0.00,,,0.00,,2013-02-13 17:22:00,
2013-02-13 11:32:00,36.0,-99.9,-100.00,North,352,2.0,3.0,-999,0.00,,,0.00,,2013-02-13 17:32:00,
2013-02-13 11:42:00,36.0,-99.9,-100.00,North,352,2.0,3.0,-999,0.00,,,0.00,,2013-02-13 17:42:00,
2013-02-13 11:52:00,36.0,-99.9,-100.00,North,352,2.0,3.0,-999,0.00,,,0.00,,2013-02-13 17:52:00,
2013-02-13 12:02:00,35.0,-99.9,-100.00,NNE,29,1.0,4.0,-999,0.00,,,0.00,,2013-02-13 18:02:00,
2013-02-13 12:12:00,35.0,-99.9,-100.00,NNE,29,1.0,4.0,-999,0.00,,,0.00,,2013-02-13 18:12:00,
2013-02-13 12:23:00,35.0,-99.9,-100.00,NNE,29,1.0,4.0,-999,0.00,,,0.00,,2013-02-13 18:23:00,
2013-02-13 12:32:00,39.0,-99.9,-100.00,West,262,1.0,4.0,-999,0.00,,,0.00,,2013-02-13 18:32:00,
2013-02-13 12:42:00,39.0,-99.9,-100.00,West,262,1.0,4.0,-999,0.00,,,0.00,,2013-02-13 18:42:00,
2013-02-13 12:52:00,39.0,-99.9,-100.00,West,262,1.0,4.0,-999,0.00,,,0.00,,2013-02-13 18:52:00,
2013-02-13 13:02:00,39.0,-99.9,-100.00,WSW,241,3.0,8.0,-999,0.00,,,0.00,,2013-02-13 19:02:00,
2013-02-13 13:11:00,39.0,-99.9,-100.00,WSW,241,3.0,8.0,-999,0.00,,,0.00,,2013-02-13 19:11:00,
2013-02-13 13:21:00,39.0,-99.9,-100.00,WSW,241,3.0,8.0,-999,0.00,,,0.00,,2013-02-13 19:21:00,
2013-02-13 13:32:00,39.0,-99.9,-100.00,WSW,246,3.0,7.0,-999,0.00,,,0.00,,2013-02-13 19:32:00,
2013-02-13 13:42:00,39.0,-99.9,-100.00,WSW,246,3.0,7.0,-999,0.00,,,0.00,,2013-02-13 19:42:00,
2013-02-13 13:52:00,39.0,-99.9,-100.00,WSW,246,3.0,7.0,-999,0.00,,,0.00,,2013-02-13 19:52:00,
2013-02-13 14:02:00,40.0,-99.9,-100.00,WSW,252,3.0,6.0,-999,0.00,,,0.00,,2013-02-13 20:02:00,
2013-02-13 14:11:00,40.0,-99.9,-100.00,WSW,252,3.0,6.0,-999,0.00,,,0.00,,2013-02-13 20:11:00,
2013-02-13 14:22:00,40.0,-99.9,-100.00,WSW,252,3.0,6.0,-999,0.00,,,0.00,,2013-02-13 20:22:00,
2013-02-13 14:32:00,41.0,-99.9,-100.00,WSW,239,4.0,6.0,-999,0.00,,,0.00,,2013-02-13 20:32:00,
2013-02-13 14:42:00,41.0,-99.9,-100.00,WSW,239,4.0,6.0,-999,0.00,,,0.00,,2013-02-13 20:42:00,
2013-02-13 14:52:00,41.0,-99.9,-100.00,WSW,239,4.0,6.0,-999,0.00,,,0.00,,2013-02-13 20:52:00,
2013-02-13 15:02:00,42.0,-99.9,-100.00,WSW,238,4.0,5.0,-999,0.00,,,0.00,,2013-02-13 21:02:00,
2013-02-13 15:11:00,42.0,-99.9,-100.00,WSW,238,4.0,5.0,-999,0.00,,,0.00,,2013-02-13 21:11:00,
2013-02-13 15:22:00,42.0,-99.9,-100.00,WSW,238,4.0,5.0,-999,0.00,,,0.00,,2013-02-13 21:22:00,
2013-02-13 15:32:00,41.0,-99.9,-100.00,WSW,247,4.0,8.0,-999,0.00,,,0.00,,2013-02-13 21:32:00,
2013-02-13 15:43:00,41.0,-99.9,-100.00,WSW,247,4.0,8.0,-999,0.00,,,0.00,,2013-02-13 21:43:00,
2013-02-13 15:52:00,41.0,-99.9,-100.00,WSW,247,4.0,8.0,-999,0.00,,,0.00,,2013-02-13 21:52:00,
2013-02-13 16:02:00,41.0,-99.9,-100.00,SW,236,3.0,6.0,-999,0.00,,,0.00,,2013-02-13 22:02:00,
2013-02-13 16:11:00,41.0,-99.9,-100.00,SW,236,3.0,6.0,-999,0.00,,,0.00,,2013-02-13 22:11:00,
2013-02-13 16:21:00,41.0,-99.9,-100.00,SW,236,3.0,6.0,-999,0.00,,,0.00,,2013-02-13 22:21:00,
2013-02-13 16:32:00,41.0,-99.9,-100.00,WSW,248,2.0,5.0,-999,0.00,,,0.00,,2013-02-13 22:32:00,
2013-02-13 16:42:00,41.0,-99.9,-100.00,WSW,248,2.0,5.0,-999,0.00,,,0.00,,2013-02-13 22:42:00,
2013-02-13 16:52:00,41.0,-99.9,-100.00,WSW,248,2.0,5.0,-999,0.00,,,0.00,,2013-02-13 22:52:00,
2013-02-13 17:02:00,40.0,-99.9,-100.00,NW,326,0.0,2.0,-999,0.00,,,0.00,,2013-02-13 23:02:00,
2013-02-13 17:12:00,40.0,-99.9,-100.00,NW,326,0.0,2.0,-999,0.00,,,0.00,,2013-02-13 23:12:00,
2013-02-13 17:22:00,40.0,-99.9,-100.00,NW,326,0.0,2.0,-999,0.00,,,0.00,,2013-02-13 23:22:00,
2013-02-13 17:32:00,38.0,-99.9,-100.00,NNW,339,1.0,2.0,-999,0.00,,,0.00,,2013-02-13 23:32:00,
2013-02-13 17:42:00,38.0,-99.9,-100.00,NNW,339,1.0,2.0,-999,0.00,,,0.00,,2013-02-13 23:42:00,
2013-02-13 17:53:00,38.0,-99.9,-100.00,NNW,339,1.0,2.0,-999,0.00,,,0.00,,2013-02-13 23:53:00,
2013-02-13 18:02:00,38.0,-99.9,-100.00,ENE,72,0.0,1.0,-999,0.00,,,0.00,,2013-02-14 00:02:00,
2013-02-13 18:12:00,38.0,-99.9,-100.00,ENE,72,0.0,1.0,-999,0.00,,,0.00,,2013-02-14 00:12:00,
2013-02-13 18:22:00,38.0,-99.9,-100.00,ENE,72,0.0,1.0,-999,0.00,,,0.00,,2013-02-14 00:22:00,
2013-02-13 18:32:00,37.0,-99.9,-100.00,SSE,163,1.0,1.0,-999,0.00,,,0.00,,2013-02-14 00:32:00,
2013-02-13 18:43:00,37.0,-99.9,-100.00,SSE,163,1.0,1.0,-999,0.00,,,0.00,,2013-02-14 00:43:00,
2013-02-13 18:52:00,37.0,-99.9,-100.00,SSE,163,1.0,1.0,-999,0.00,,,0.00,,2013-02-14 00:52:00,
2013-02-13 19:01:00,36.0,-99.9,-100.00,SSE,157,2.0,3.0,-999,0.00,,,0.00,,2013-02-14 01:01:00,
2013-02-13 19:11:00,36.0,-99.9,-100.00,SSE,157,2.0,3.0,-999,0.00,,,0.00,,2013-02-14 01:11:00,
2013-02-13 19:22:00,36.0,-99.9,-100.00,SSE,157,2.0,3.0,-999,0.00,,,0.00,,2013-02-14 01:22:00,
2013-02-13 19:32:00,34.0,-99.9,-100.00,SSE,148,2.0,3.0,-999,0.00,,,0.00,,2013-02-14 01:32:00,
2013-02-13 19:42:00,34.0,-99.9,-100.00,SSE,148,2.0,3.0,-999,0.00,,,0.00,,2013-02-14 01:42:00,
2013-02-13 19:52:00,34.0,-99.9,-100.00,SSE,148,2.0,3.0,-999,0.00,,,0.00,,2013-02-14 01:52:00,
2013-02-13 20:02:00,35.0,-99.9,-100.00,SE,143,1.0,2.0,-999,0.00,,,0.00,,2013-02-14 02:02:00,
2013-02-13 20:11:00,35.0,-99.9,-100.00,SE,143,1.0,2.0,-999,0.00,,,0.00,,2013-02-14 02:11:00,
2013-02-13 20:22:00,35.0,-99.9,-100.00,SE,143,1.0,2.0,-999,0.00,,,0.00,,2013-02-14 02:22:00,
2013-02-13 20:32:00,34.0,-99.9,-100.00,SSE,149,1.0,2.0,-999,0.00,,,0.00,,2013-02-14 02:32:00,
2013-02-13 20:42:00,34.0,-99.9,-100.00,SSE,149,1.0,2.0,-999,0.00,,,0.00,,2013-02-14 02:42:00,
2013-02-13 20:52:00,34.0,-99.9,-100.00,SSE,149,1.0,2.0,-999,0.00,,,0.00,,2013-02-14 02:52:00,
2013-02-13 21:02:00,34.0,-99.9,-100.00,SSE,157,2.0,3.0,-999,0.00,,,0.00,,2013-02-14 03:02:00,
2013-02-13 21:12:00,34.0,-99.9,-100.00,SSE,157,2.0,3.0,-999,0.00,,,0.00,,2013-02-14 03:12:00,
2013-02-13 21:22:00,34.0,-99.9,-100.00,SSE,157,2.0,3.0,-999,0.00,,,0.00,,2013-02-14 03:22:00,
2013-02-13 21:32:00,34.0,-99.9,-100.00,SSE,164,1.0,3.0,-999,0.00,,,0.00,,2013-02-14 03:32:00,
2013-02-13 21:42:00,34.0,-99.9,-100.00,SSE,164,1.0,3.0,-999,0.00,,,0.00,,2013-02-14 03:42:00,
2013-02-13 21:52:00,34.0,-99.9,-100.00,SSE,164,1.0,3.0,-999,0.00,,,0.00,,2013-02-14 03:52:00,
2013-02-13 22:01:00,33.0,-99.9,-100.00,SSE,166,1.0,1.0,-999,0.00,,,0.00,,2013-02-14 04:01:00,
2013-02-13 22:12:00,33.0,-99.9,-100.00,SSE,166,1.0,1.0,-999,0.00,,,0.00,,2013-02-14 04:12:00,
2013-02-13 22:22:00,33.0,-99.9,-100.00,SSE,166,1.0,1.0,-999,0.00,,,0.00,,2013-02-14 04:22:00,
2013-02-13 22:32:00,34.0,-99.9,-100.00,SSE,159,2.0,2.0,-999,0.00,,,0.00,,2013-02-14 04:32:00,
2013-02-13 22:42:00,34.0,-99.9,-100.00,SSE,159,2.0,2.0,-999,0.00,,,0.00,,2013-02-14 04:42:00,
2013-02-13 22:52:00,34.0,-99.9,-100.00,SSE,159,2.0,2.0,-999,0.00,,,0.00,,2013-02-14 04:52:00,
2013-02-13 23:02:00,33.0,-99.9,-100.00,SSE,151,0.0,1.0,-999,0.00,,,-99.99,,2013-02-14 05:02:00,
2013-02-13 23:12:00,33.0,-99.9,-100.00,SSE,151,0.0,1.0,-999,0.00,,,-99.99,,2013-02-14 05:12:00,
2013-02-13 23:22:00,33.0,-99.9,-100.00,SSE,151,0.0,1.0,-999,0.00,,,-99.99,,2013-02-14 05:22:00,
2013-02-13 23:32:00,34.0,-99.9,-100.00,West,269,0.0,1.0,-999,0.00,,,0.00,,2013-02-14 05:32:00,
2013-02-13 23:42:00,34.0,-99.9,-100.00,West,269,0.0,1.0,-999,0.00,,,0.00,,2013-02-14 05:42:00,
2013-02-13 23:52:00,34.0,-99.9,-100.00,West,269,0.0,1.0,-999,0.00,,,0.00,,2013-02-14 05:52:00,